Arrantzale — EBVT — position and weather

sailwx.info

Track history (hours):
 
Tides and Currents Weather Stations Pressure Air Temp Water Temp Dewpoint Dewpoint Depression Visibility Wind Speed Wind Dir Waves Ship Positions

Arrantzale

Last reported at 2015-Aug-02 21:30 UTC. Time now 2015-Aug-05 00:00 UTC.
Position N 44°26' W 004°44'.

Length 32 m.

Type: Fishing. MMSI: 224065290.

Date/timePositionNaut miles runAvg speedWind from/ knotsBaromVisibWave heightAir tempDewpointWater temp
2015-Aug-02 21:30N 44°26' W 004°44'46 5.1
2015-Aug-02 12:27N 45°12' W 004°43'14 1.1
2015-Aug-01 23:29N 45°05' W 004°25'  
2015-Jul-27 05:19N 43°25' W 001°52'3 3.8
2015-Jul-27 04:24N 43°23' W 001°48'0 0.1
2015-Jul-27 03:33N 43°23' W 001°47'0 0.0
2015-Jul-27 02:33N 43°23' W 001°47'0 0.0
2015-Jul-27 01:32N 43°23' W 001°47'0 0.0
2015-Jul-27 00:33N 43°23' W 001°47'0 0.0
2015-Jul-26 23:33N 43°23' W 001°47'0 0.0
2015-Jul-26 22:34N 43°23' W 001°47'0 0.0
2015-Jul-26 21:34N 43°23' W 001°47'0 0.0
2015-Jul-26 20:34N 43°23' W 001°47'0 0.0
2015-Jul-26 19:34N 43°23' W 001°47'0 0.0
2015-Jul-26 18:33N 43°23' W 001°47'0 0.0
2015-Jul-26 17:34N 43°23' W 001°47'0 0.0
2015-Jul-26 16:33N 43°23' W 001°47'0 0.0
2015-Jul-26 15:34N 43°23' W 001°47'0 0.0
2015-Jul-26 14:33N 43°23' W 001°47'0 0.0
2015-Jul-26 13:34N 43°23' W 001°47'0 0.0
2015-Jul-26 12:34N 43°23' W 001°47'0 0.0
2015-Jul-26 11:33N 43°23' W 001°47'0 0.0
2015-Jul-26 10:33N 43°23' W 001°47'0 0.0
2015-Jul-26 09:33N 43°23' W 001°47'0 0.0
2015-Jul-26 08:32N 43°23' W 001°47'0 0.0
2015-Jul-26 07:33N 43°23' W 001°47'0 0.0
2015-Jul-26 06:33N 43°23' W 001°47'0 0.0
2015-Jul-26 05:33N 43°23' W 001°47'0 0.0
2015-Jul-26 04:33N 43°23' W 001°47'0 0.0
2015-Jul-26 03:34N 43°23' W 001°47'0 0.0
2015-Jul-26 02:33N 43°23' W 001°47'0 0.0
2015-Jul-26 01:33N 43°23' W 001°47'0 0.0
2015-Jul-26 00:33N 43°23' W 001°47'0 0.0
2015-Jul-25 23:33N 43°23' W 001°47'0 0.0
2015-Jul-25 22:34N 43°23' W 001°47'0 0.0
2015-Jul-25 21:34N 43°23' W 001°47'0 0.0
2015-Jul-25 20:34N 43°23' W 001°47'0 0.0
2015-Jul-25 19:34N 43°23' W 001°47'0 0.0
2015-Jul-25 18:34N 43°23' W 001°47'0 0.0
2015-Jul-25 17:33N 43°23' W 001°47'0 0.0
2015-Jul-25 16:33N 43°23' W 001°47'0 0.0
2015-Jul-25 15:33N 43°23' W 001°47'0 0.0
2015-Jul-25 14:33N 43°23' W 001°47'0 0.0
2015-Jul-25 13:33N 43°23' W 001°47'0 0.0
2015-Jul-25 12:34N 43°23' W 001°47'0 0.0
2015-Jul-25 11:34N 43°23' W 001°47'0 0.0
2015-Jul-25 10:33N 43°23' W 001°47'0 0.0
2015-Jul-25 09:34N 43°23' W 001°47'0 0.0
2015-Jul-25 08:33N 43°23' W 001°47'0 0.0
2015-Jul-25 07:34N 43°23' W 001°47'0 0.0
2015-Jul-25 06:34N 43°23' W 001°47'0 0.0
2015-Jul-25 05:34N 43°23' W 001°47'0 0.0
2015-Jul-25 04:33N 43°23' W 001°47'0 0.0
2015-Jul-25 03:33N 43°23' W 001°47'0 0.0
2015-Jul-25 02:34N 43°23' W 001°47'0 0.0
2015-Jul-25 01:34N 43°23' W 001°47'0 0.0
2015-Jul-25 00:34N 43°23' W 001°47'0 0.0
2015-Jul-24 23:33N 43°23' W 001°47'0 0.0
2015-Jul-24 22:34N 43°23' W 001°47'0 0.0
2015-Jul-24 21:33N 43°23' W 001°47'0 0.0
2015-Jul-24 20:33N 43°23' W 001°47'0 0.0
2015-Jul-24 19:33N 43°23' W 001°47'0 0.0
2015-Jul-24 18:34N 43°23' W 001°47'0 0.0
2015-Jul-24 17:33N 43°23' W 001°47'0 0.0
2015-Jul-24 16:33N 43°23' W 001°47'0 0.0
2015-Jul-24 15:33N 43°23' W 001°47'0 0.0
2015-Jul-24 14:33N 43°23' W 001°47'0 0.0
2015-Jul-24 13:34N 43°23' W 001°47'0 0.0
2015-Jul-24 12:34N 43°23' W 001°47'0 0.0
2015-Jul-24 11:33N 43°23' W 001°47'0 0.0
2015-Jul-24 10:33N 43°23' W 001°47'1 1.0
2015-Jul-24 09:33N 43°24' W 001°47'1 1.0
2015-Jul-24 08:31N 43°23' W 001°47'0 0.0
2015-Jul-24 07:33N 43°23' W 001°47'0 0.0
2015-Jul-24 06:33N 43°23' W 001°47'0 0.0
2015-Jul-24 05:33N 43°23' W 001°47'0 0.1
2015-Jul-24 04:33N 43°23' W 001°47'0 0.0
2015-Jul-24 03:32N 43°23' W 001°47'0 0.1
2015-Jul-24 02:34N 43°23' W 001°48'0 0.0
2015-Jul-24 01:33N 43°23' W 001°48'0 0.0
2015-Jul-24 00:33N 43°23' W 001°48'0 0.0
2015-Jul-23 23:33N 43°23' W 001°48'  
Track history (hours):
 
Tides and Currents Weather Stations Pressure Air Temp Water Temp Dewpoint Dewpoint Depression Visibility Wind Speed Wind Dir Waves Ship Positions

Arrantzale

Last reported at 2015-Aug-02 21:30 UTC. Time now 2015-Aug-05 00:00 UTC.
Position N 44°26' W 004°44'.

Length 32 m.

Type: Fishing. MMSI: 224065290.

Date/timePositionNaut miles runAvg speedWind from/ knotsBaromVisibWave heightAir tempDewpointWater temp
2015-Aug-02 21:30N 44°26' W 004°44'46 5.1
2015-Aug-02 12:27N 45°12' W 004°43'14 1.1
2015-Aug-01 23:29N 45°05' W 004°25'  
2015-Jul-27 05:19N 43°25' W 001°52'3 3.8
2015-Jul-27 04:24N 43°23' W 001°48'0 0.1
2015-Jul-27 03:33N 43°23' W 001°47'0 0.0
2015-Jul-27 02:33N 43°23' W 001°47'0 0.0
2015-Jul-27 01:32N 43°23' W 001°47'0 0.0
2015-Jul-27 00:33N 43°23' W 001°47'0 0.0
2015-Jul-26 23:33N 43°23' W 001°47'0 0.0
2015-Jul-26 22:34N 43°23' W 001°47'0 0.0
2015-Jul-26 21:34N 43°23' W 001°47'0 0.0
2015-Jul-26 20:34N 43°23' W 001°47'0 0.0
2015-Jul-26 19:34N 43°23' W 001°47'0 0.0
2015-Jul-26 18:33N 43°23' W 001°47'0 0.0
2015-Jul-26 17:34N 43°23' W 001°47'0 0.0
2015-Jul-26 16:33N 43°23' W 001°47'0 0.0
2015-Jul-26 15:34N 43°23' W 001°47'0 0.0
2015-Jul-26 14:33N 43°23' W 001°47'0 0.0
2015-Jul-26 13:34N 43°23' W 001°47'0 0.0
2015-Jul-26 12:34N 43°23' W 001°47'0 0.0
2015-Jul-26 11:33N 43°23' W 001°47'0 0.0
2015-Jul-26 10:33N 43°23' W 001°47'0 0.0
2015-Jul-26 09:33N 43°23' W 001°47'0 0.0
2015-Jul-26 08:32N 43°23' W 001°47'0 0.0
2015-Jul-26 07:33N 43°23' W 001°47'0 0.0
2015-Jul-26 06:33N 43°23' W 001°47'0 0.0
2015-Jul-26 05:33N 43°23' W 001°47'0 0.0
2015-Jul-26 04:33N 43°23' W 001°47'0 0.0
2015-Jul-26 03:34N 43°23' W 001°47'0 0.0
2015-Jul-26 02:33N 43°23' W 001°47'0 0.0
2015-Jul-26 01:33N 43°23' W 001°47'0 0.0
2015-Jul-26 00:33N 43°23' W 001°47'0 0.0
2015-Jul-25 23:33N 43°23' W 001°47'0 0.0
2015-Jul-25 22:34N 43°23' W 001°47'0 0.0
2015-Jul-25 21:34N 43°23' W 001°47'0 0.0
2015-Jul-25 20:34N 43°23' W 001°47'0 0.0
2015-Jul-25 19:34N 43°23' W 001°47'0 0.0
2015-Jul-25 18:34N 43°23' W 001°47'0 0.0
2015-Jul-25 17:33N 43°23' W 001°47'0 0.0
2015-Jul-25 16:33N 43°23' W 001°47'0 0.0
2015-Jul-25 15:33N 43°23' W 001°47'0 0.0
2015-Jul-25 14:33N 43°23' W 001°47'0 0.0
2015-Jul-25 13:33N 43°23' W 001°47'0 0.0
2015-Jul-25 12:34N 43°23' W 001°47'0 0.0
2015-Jul-25 11:34N 43°23' W 001°47'0 0.0
2015-Jul-25 10:33N 43°23' W 001°47'0 0.0
2015-Jul-25 09:34N 43°23' W 001°47'0 0.0
2015-Jul-25 08:33N 43°23' W 001°47'0 0.0
2015-Jul-25 07:34N 43°23' W 001°47'0 0.0
2015-Jul-25 06:34N 43°23' W 001°47'0 0.0
2015-Jul-25 05:34N 43°23' W 001°47'0 0.0
2015-Jul-25 04:33N 43°23' W 001°47'0 0.0
2015-Jul-25 03:33N 43°23' W 001°47'0 0.0
2015-Jul-25 02:34N 43°23' W 001°47'0 0.0
2015-Jul-25 01:34N 43°23' W 001°47'0 0.0
2015-Jul-25 00:34N 43°23' W 001°47'0 0.0
2015-Jul-24 23:33N 43°23' W 001°47'0 0.0
2015-Jul-24 22:34N 43°23' W 001°47'0 0.0
2015-Jul-24 21:33N 43°23' W 001°47'0 0.0
2015-Jul-24 20:33N 43°23' W 001°47'0 0.0
2015-Jul-24 19:33N 43°23' W 001°47'0 0.0
2015-Jul-24 18:34N 43°23' W 001°47'0 0.0
2015-Jul-24 17:33N 43°23' W 001°47'0 0.0
2015-Jul-24 16:33N 43°23' W 001°47'0 0.0
2015-Jul-24 15:33N 43°23' W 001°47'0 0.0
2015-Jul-24 14:33N 43°23' W 001°47'0 0.0
2015-Jul-24 13:34N 43°23' W 001°47'0 0.0
2015-Jul-24 12:34N 43°23' W 001°47'0 0.0
2015-Jul-24 11:33N 43°23' W 001°47'0 0.0
2015-Jul-24 10:33N 43°23' W 001°47'1 1.0
2015-Jul-24 09:33N 43°24' W 001°47'1 1.0
2015-Jul-24 08:31N 43°23' W 001°47'0 0.0
2015-Jul-24 07:33N 43°23' W 001°47'0 0.0
2015-Jul-24 06:33N 43°23' W 001°47'0 0.0
2015-Jul-24 05:33N 43°23' W 001°47'0 0.1
2015-Jul-24 04:33N 43°23' W 001°47'0 0.0
2015-Jul-24 03:32N 43°23' W 001°47'0 0.1
2015-Jul-24 02:34N 43°23' W 001°48'0 0.0
2015-Jul-24 01:33N 43°23' W 001°48'0 0.0
2015-Jul-24 00:33N 43°23' W 001°48'0 0.0
2015-Jul-23 23:33N 43°23' W 001°48'  

Dump ship's entire track history